createdAt,value
2018-04-26T00:01:55.781Z,15.09
2018-04-26T00:04:23.369Z,14.98
2018-04-26T00:06:50.931Z,15.11
2018-04-26T00:09:18.421Z,15.15
2018-04-26T00:11:45.881Z,15.20
2018-04-26T00:14:13.926Z,15.13
2018-04-26T00:16:41.377Z,14.99
2018-04-26T00:19:08.851Z,15.16
2018-04-26T00:21:36.318Z,15.29
2018-04-26T00:24:03.884Z,15.11
2018-04-26T00:26:31.540Z,15.19
2018-04-26T00:28:59.603Z,15.33
2018-04-26T00:31:27.119Z,15.35
2018-04-26T00:33:54.560Z,15.35
2018-04-26T00:36:22.061Z,15.24
2018-04-26T00:38:49.617Z,15.16
2018-04-26T00:41:17.127Z,14.96
2018-04-26T00:43:44.677Z,15.03
2018-04-26T00:46:12.174Z,14.95
2018-04-26T00:48:39.620Z,14.96
2018-04-26T00:51:07.173Z,14.81
2018-04-26T00:53:34.648Z,14.81
2018-04-26T00:56:02.136Z,14.96
2018-04-26T00:58:29.617Z,14.97
2018-04-26T01:00:58.258Z,14.95
2018-04-26T01:03:25.806Z,14.76
2018-04-26T01:05:53.267Z,14.86
2018-04-26T01:08:20.761Z,14.88
2018-04-26T01:10:48.278Z,14.91
2018-04-26T01:13:15.833Z,14.74
2018-04-26T01:15:43.329Z,14.42
2018-04-26T01:18:11.005Z,14.37
2018-04-26T01:20:38.463Z,14.58
2018-04-26T01:23:05.902Z,14.46
2018-04-26T01:25:33.441Z,14.51
2018-04-26T01:28:01.692Z,14.64
2018-04-26T01:30:29.156Z,14.39
2018-04-26T01:32:56.618Z,14.18
2018-04-26T01:35:24.127Z,13.95
2018-04-26T01:37:51.590Z,14.10
2018-04-26T01:40:19.165Z,14.29
2018-04-26T01:42:46.619Z,14.44
2018-04-26T01:45:14.742Z,14.39
2018-04-26T01:47:42.174Z,14.45
2018-04-26T01:50:09.702Z,14.41
2018-04-26T01:52:37.296Z,14.43
2018-04-26T01:55:04.904Z,14.56
2018-04-26T01:57:32.434Z,14.44
2018-04-26T01:59:59.881Z,14.24
2018-04-26T02:02:27.360Z,14.23
2018-04-26T02:04:54.874Z,14.35
2018-04-26T02:07:22.331Z,14.38
2018-04-26T02:09:49.755Z,14.32
2018-04-26T02:12:17.253Z,14.39
2018-04-26T02:14:44.720Z,14.12
2018-04-26T02:17:12.253Z,13.68
2018-04-26T02:19:39.711Z,13.71
2018-04-26T02:22:07.191Z,13.74
2018-04-26T02:24:34.653Z,13.90
2018-04-26T02:27:02.191Z,13.92
2018-04-26T02:29:29.649Z,13.84
2018-04-26T02:31:57.120Z,13.91
2018-04-26T02:34:24.652Z,13.84
2018-04-26T02:36:52.095Z,13.73
2018-04-26T02:39:19.646Z,13.67
2018-04-26T02:41:47.132Z,13.67
2018-04-26T02:44:14.613Z,13.69
2018-04-26T02:46:42.054Z,13.75
2018-04-26T02:49:10.292Z,13.83
2018-04-26T02:51:37.777Z,13.89
2018-04-26T02:54:05.239Z,13.91
2018-04-26T02:56:32.888Z,13.99
2018-04-26T02:59:00.320Z,13.84
2018-04-26T03:01:27.937Z,13.48
2018-04-26T03:03:55.480Z,13.55
2018-04-26T03:06:23.032Z,13.72
2018-04-26T03:08:50.602Z,13.83
2018-04-26T03:11:18.331Z,13.94
2018-04-26T03:13:45.763Z,13.94
2018-04-26T03:16:13.224Z,13.91
2018-04-26T03:18:40.765Z,13.96
2018-04-26T03:21:08.279Z,13.92
2018-04-26T03:23:35.742Z,13.96
2018-04-26T03:26:03.208Z,14.05
2018-04-26T03:28:30.642Z,13.90
2018-04-26T03:30:58.124Z,13.72
2018-04-26T03:33:25.681Z,13.63
2018-04-26T03:35:53.126Z,13.49
2018-04-26T03:38:20.604Z,13.53
2018-04-26T03:40:48.132Z,13.44
2018-04-26T03:43:15.690Z,13.39
2018-04-26T03:45:43.140Z,13.16
2018-04-26T03:48:10.618Z,13.19
2018-04-26T03:50:38.717Z,13.11
2018-04-26T03:53:06.262Z,13.06
2018-04-26T03:55:33.869Z,12.99
2018-04-26T03:58:01.530Z,12.84
2018-04-26T04:00:40.844Z,12.61
2018-04-26T04:06:15.146Z,12.53
2018-04-26T04:08:42.619Z,12.61
2018-04-26T04:11:10.080Z,12.61
2018-04-26T04:13:38.163Z,12.64
2018-04-26T04:16:05.691Z,12.61
2018-04-26T04:18:33.192Z,12.49
2018-04-26T04:21:00.683Z,12.30
2018-04-26T04:23:28.231Z,12.42
2018-04-26T04:25:55.812Z,12.49
2018-04-26T04:28:23.376Z,12.57
2018-04-26T04:30:50.934Z,12.71
2018-04-26T04:33:18.470Z,12.67
2018-04-26T04:35:45.934Z,12.52
2018-04-26T04:38:13.723Z,12.59
2018-04-26T04:40:41.288Z,12.61
2018-04-26T04:43:08.781Z,12.60
2018-04-26T04:45:36.215Z,12.67
2018-04-26T04:48:03.668Z,12.69
2018-04-26T04:50:31.124Z,12.75
2018-04-26T04:52:58.564Z,12.80
2018-04-26T04:55:26.032Z,12.79
2018-04-26T04:57:53.505Z,12.70
2018-04-26T05:00:20.987Z,12.36
2018-04-26T05:02:48.468Z,12.31
2018-04-26T05:05:16.126Z,12.30
2018-04-26T05:07:43.698Z,12.42
2018-04-26T05:10:11.250Z,12.50
2018-04-26T05:12:38.767Z,12.59
2018-04-26T05:15:06.237Z,12.55
2018-04-26T05:17:33.674Z,12.59
2018-04-26T05:20:01.248Z,12.71
2018-04-26T05:22:28.708Z,12.67
2018-04-26T05:24:56.215Z,12.72
2018-04-26T05:27:23.715Z,12.64
2018-04-26T05:29:51.165Z,12.75
2018-04-26T05:32:18.674Z,12.68
2018-04-26T05:34:46.120Z,12.69
2018-04-26T05:37:14.197Z,12.76
2018-04-26T05:39:41.696Z,13.05
2018-04-26T05:42:09.279Z,13.31
2018-04-26T05:44:36.819Z,13.58
2018-04-26T05:47:04.300Z,13.94
2018-04-26T05:49:31.792Z,15.52
2018-04-26T05:51:59.283Z,17.44
2018-04-26T05:54:26.751Z,18.89
2018-04-26T05:56:54.282Z,19.91
2018-04-26T05:59:21.763Z,20.87
2018-04-26T06:01:49.245Z,21.46
2018-04-26T06:04:16.753Z,22.03
2018-04-26T06:06:44.434Z,21.29
2018-04-26T06:09:12.309Z,21.83
2018-04-26T06:11:40.205Z,21.95
2018-04-26T06:14:07.716Z,22.27
2018-04-26T06:16:35.603Z,22.78
2018-04-26T06:19:03.118Z,22.98
2018-04-26T06:21:30.700Z,22.77
2018-04-26T06:23:58.313Z,23.50
2018-04-26T06:26:25.894Z,23.10
2018-04-26T06:28:53.531Z,23.10
2018-04-26T06:31:20.989Z,22.75
2018-04-26T06:33:48.541Z,21.22
2018-04-26T06:36:16.132Z,20.00
2018-04-26T06:38:43.665Z,18.53
2018-04-26T06:41:11.214Z,17.67
2018-04-26T06:43:38.721Z,17.17
2018-04-26T06:46:06.313Z,16.97
2018-04-26T06:48:34.674Z,16.95
2018-04-26T06:51:02.121Z,17.10
2018-04-26T06:53:29.621Z,16.82
2018-04-26T06:55:57.037Z,16.17
2018-04-26T06:58:24.599Z,15.72
2018-04-26T07:00:52.108Z,15.72
2018-04-26T07:03:20.265Z,15.68
2018-04-26T07:05:48.594Z,15.64
2018-04-26T07:08:16.120Z,15.65
2018-04-26T07:10:43.580Z,15.35
2018-04-26T07:13:11.127Z,15.44
2018-04-26T07:15:38.632Z,15.43
2018-04-26T07:18:06.159Z,15.44
2018-04-26T07:20:33.664Z,15.27
2018-04-26T07:23:01.151Z,15.10
2018-04-26T07:25:29.299Z,14.78
2018-04-26T07:27:56.833Z,14.75
2018-04-26T07:30:24.380Z,14.89
2018-04-26T07:32:51.958Z,14.67
2018-04-26T07:35:19.444Z,14.75
2018-04-26T07:37:46.918Z,14.92
2018-04-26T07:40:14.507Z,14.87
2018-04-26T07:42:41.972Z,14.68
2018-04-26T07:45:09.498Z,14.58
2018-04-26T07:47:37.055Z,14.79
2018-04-26T07:50:04.587Z,14.74
2018-04-26T07:52:32.089Z,14.81
2018-04-26T07:55:02.161Z,14.84
2018-04-26T07:57:29.699Z,14.73
2018-04-26T07:59:57.246Z,14.56
2018-04-26T08:02:24.856Z,14.53
2018-04-26T08:04:52.461Z,14.61
2018-04-26T08:07:20.075Z,14.58
2018-04-26T08:09:47.516Z,14.39
2018-04-26T08:12:14.986Z,14.42
2018-04-26T08:14:42.567Z,14.66
2018-04-26T08:17:10.101Z,14.53
2018-04-26T08:19:37.671Z,14.44
2018-04-26T08:22:05.455Z,14.55
2018-04-26T08:24:33.814Z,14.37
2018-04-26T08:27:01.780Z,14.58
2018-04-26T08:29:29.290Z,14.48
2018-04-26T08:31:57.026Z,14.27
2018-04-26T08:34:25.291Z,14.52
2018-04-26T08:36:53.088Z,14.83
2018-04-26T08:39:20.539Z,14.78
2018-04-26T08:41:48.321Z,14.79
2018-04-26T08:44:16.154Z,14.69
2018-04-26T08:46:43.652Z,14.80
2018-04-26T08:49:11.109Z,14.81
2018-04-26T08:51:38.721Z,14.84
2018-04-26T08:54:06.239Z,15.04
2018-04-26T08:56:34.058Z,15.09
2018-04-26T08:59:01.518Z,15.33
2018-04-26T09:01:28.991Z,15.14
2018-04-26T09:03:56.460Z,15.25
2018-04-26T09:06:24.160Z,15.62
2018-04-26T09:08:51.849Z,15.60
2018-04-26T09:11:19.342Z,15.37
2018-04-26T09:13:46.804Z,15.47
2018-04-26T09:16:14.448Z,15.13
2018-04-26T09:18:42.027Z,15.15
2018-04-26T09:21:09.615Z,15.10
2018-04-26T09:23:37.202Z,14.78
2018-04-26T09:26:04.671Z,15.00
2018-04-26T09:28:32.226Z,14.76
2018-04-26T09:30:59.688Z,14.90
2018-04-26T09:33:27.166Z,14.97
2018-04-26T09:35:54.734Z,14.91
2018-04-26T09:38:22.263Z,14.77
2018-04-26T09:40:49.708Z,14.59
2018-04-26T09:43:17.187Z,14.57
2018-04-26T09:45:44.653Z,14.75
2018-04-26T09:48:12.118Z,14.68
2018-04-26T09:50:39.626Z,14.91
2018-04-26T09:53:07.129Z,14.81
2018-04-26T09:55:34.688Z,14.61
2018-04-26T09:58:02.300Z,14.58
2018-04-26T10:00:29.787Z,14.74
2018-04-26T10:02:57.942Z,15.36
2018-04-26T10:05:30.813Z,15.61
2018-04-26T10:07:58.842Z,15.53
2018-04-26T10:10:26.652Z,15.31
2018-04-26T10:12:54.128Z,15.48
2018-04-26T10:15:21.614Z,15.73
2018-04-26T10:17:49.144Z,15.81
2018-04-26T10:20:16.760Z,16.25
2018-04-26T10:22:45.335Z,16.67
2018-04-26T10:25:12.750Z,16.67
2018-04-26T10:27:40.303Z,16.40
2018-04-26T10:30:07.745Z,16.31
2018-04-26T10:32:35.945Z,16.25
2018-04-26T10:35:03.469Z,16.07
2018-04-26T10:37:30.948Z,15.95
2018-04-26T10:39:58.455Z,15.75
2018-04-26T10:42:26.248Z,15.68
2018-04-26T10:44:53.671Z,15.48
2018-04-26T10:47:21.185Z,15.41
2018-04-26T10:49:48.690Z,15.56
2018-04-26T10:52:16.147Z,15.72
2018-04-26T10:54:44.690Z,16.08
2018-04-26T10:57:12.142Z,16.38
2018-04-26T10:59:39.776Z,16.59
2018-04-26T11:02:07.247Z,16.87
2018-04-26T11:04:34.718Z,17.04
2018-04-26T11:07:02.219Z,16.82
2018-04-26T11:09:29.671Z,17.01
2018-04-26T11:11:57.160Z,17.03
2018-04-26T11:14:24.660Z,17.22
2018-04-26T11:16:52.220Z,16.91
2018-04-26T11:19:19.776Z,17.25
2018-04-26T11:21:47.468Z,17.43
2018-04-26T11:24:14.922Z,17.51
2018-04-26T11:26:42.378Z,17.75
2018-04-26T11:29:09.824Z,17.99
2018-04-26T11:31:37.373Z,17.87
2018-04-26T11:34:04.823Z,18.10
2018-04-26T11:36:32.305Z,18.13
2018-04-26T11:39:00.064Z,18.03
2018-04-26T11:41:27.953Z,18.18
2018-04-26T11:43:55.471Z,18.16
2018-04-26T11:46:22.940Z,18.15
2018-04-26T11:48:50.657Z,17.91
2018-04-26T11:51:18.167Z,17.77
2018-04-26T11:53:46.414Z,17.82
2018-04-26T11:56:14.255Z,17.98
2018-04-26T11:58:41.675Z,18.07
2018-04-26T12:01:09.144Z,17.97
2018-04-26T12:03:37.210Z,18.12
2018-04-26T12:06:04.701Z,17.84
2018-04-26T12:08:32.803Z,17.88
2018-04-26T12:11:00.410Z,18.28
2018-04-26T12:13:27.982Z,18.54
2018-04-26T12:15:55.577Z,18.64
2018-04-26T12:18:23.067Z,18.40
2018-04-26T12:20:50.670Z,18.46
2018-04-26T12:23:18.134Z,18.21
2018-04-26T12:25:45.673Z,18.28
2018-04-26T12:28:13.150Z,18.28
2018-04-26T12:30:40.783Z,18.35
2018-04-26T12:33:08.645Z,18.50
2018-04-26T12:35:36.122Z,18.54
2018-04-26T12:38:03.589Z,18.59
2018-04-26T12:40:31.059Z,18.49
2018-04-26T12:42:58.536Z,18.06
2018-04-26T12:45:26.026Z,17.94
2018-04-26T12:47:53.567Z,17.99
2018-04-26T12:50:21.046Z,17.88
2018-04-26T12:52:49.298Z,17.94
2018-04-26T12:55:16.759Z,17.94
2018-04-26T12:57:44.273Z,18.06
2018-04-26T13:00:11.733Z,18.89
2018-04-26T13:02:39.313Z,18.95
2018-04-26T13:05:06.827Z,19.14
2018-04-26T13:07:35.149Z,20.52
2018-04-26T13:10:02.708Z,22.01
2018-04-26T13:12:30.215Z,21.31
2018-04-26T13:14:58.953Z,20.85
2018-04-26T13:17:28.250Z,20.03
2018-04-26T13:19:55.659Z,21.59
2018-04-26T13:22:23.198Z,21.38
2018-04-26T13:24:51.245Z,20.63
2018-04-26T13:27:18.838Z,20.45
2018-04-26T13:29:46.324Z,19.89
2018-04-26T13:32:14.576Z,19.84
2018-04-26T13:34:42.901Z,19.75
2018-04-26T13:37:10.488Z,19.03
2018-04-26T13:39:38.040Z,18.92
2018-04-26T13:42:05.483Z,18.85
2018-04-26T13:44:32.951Z,19.23
2018-04-26T13:47:00.500Z,19.29
2018-04-26T13:49:28.028Z,19.40
2018-04-26T13:51:55.524Z,18.94
2018-04-26T13:54:23.091Z,18.93
2018-04-26T13:56:51.716Z,19.16
2018-04-26T13:59:19.349Z,19.40
2018-04-26T14:01:46.949Z,19.71
2018-04-26T14:04:15.211Z,19.54
2018-04-26T14:06:43.170Z,19.34
2018-04-26T14:09:10.654Z,18.71
2018-04-26T14:11:38.988Z,18.88
2018-04-26T14:14:06.595Z,18.61
2018-04-26T14:16:34.306Z,19.41
2018-04-26T14:19:02.012Z,20.90
2018-04-26T14:21:29.547Z,21.56
2018-04-26T14:23:57.887Z,22.15
2018-04-26T14:26:26.019Z,21.57
2018-04-26T14:28:53.637Z,21.22
2018-04-26T14:31:21.871Z,20.85
2018-04-26T14:33:49.346Z,20.72
2018-04-26T14:36:16.876Z,19.92
2018-04-26T14:38:44.355Z,19.79
2018-04-26T14:41:11.878Z,20.29
2018-04-26T14:43:39.737Z,20.35
2018-04-26T14:46:07.593Z,20.57
2018-04-26T14:48:36.273Z,20.54
2018-04-26T14:51:03.848Z,20.57
2018-04-26T14:53:31.348Z,20.62
2018-04-26T14:55:59.045Z,20.84
2018-04-26T14:58:26.951Z,20.47
2018-04-26T15:00:54.416Z,20.31
2018-04-26T15:03:22.764Z,20.19
2018-04-26T15:05:50.353Z,19.93
2018-04-26T15:08:17.793Z,19.83
2018-04-26T15:10:45.337Z,19.56
2018-04-26T15:13:13.220Z,19.79
2018-04-26T15:15:40.793Z,19.87
2018-04-26T15:18:09.230Z,19.31
2018-04-26T15:20:36.742Z,19.00
2018-04-26T15:23:04.272Z,18.59
2018-04-26T15:25:31.983Z,18.72
2018-04-26T15:27:59.520Z,18.44
2018-04-26T15:30:27.199Z,18.04
2018-04-26T15:32:54.749Z,18.15
2018-04-26T15:35:22.816Z,18.16
2018-04-26T15:37:50.348Z,18.00
2018-04-26T15:40:17.885Z,17.84
2018-04-26T15:42:45.550Z,17.90
2018-04-26T15:45:13.291Z,18.37
2018-04-26T15:47:40.864Z,18.47
2018-04-26T15:50:09.617Z,18.78
2018-04-26T15:52:55.563Z,18.79
2018-04-26T15:55:35.625Z,18.62
2018-04-26T15:58:15.790Z,18.29
2018-04-26T16:01:00.902Z,18.03
2018-04-26T16:03:41.065Z,18.21
2018-04-26T16:06:32.342Z,18.15
2018-04-26T16:09:11.729Z,18.13
2018-04-26T16:11:51.576Z,18.03
2018-04-26T16:14:34.619Z,18.12
2018-04-26T16:17:32.341Z,18.13
2018-04-26T16:20:19.564Z,17.84
2018-04-26T16:23:04.556Z,17.76
2018-04-26T16:25:45.565Z,17.76
2018-04-26T16:28:30.534Z,17.62
2018-04-26T16:31:22.568Z,17.66
2018-04-26T16:34:06.873Z,17.61
2018-04-26T16:36:46.168Z,17.47
2018-04-26T16:39:16.391Z,17.48
2018-04-26T16:41:43.867Z,17.31
2018-04-26T16:44:11.469Z,17.61
2018-04-26T16:46:38.957Z,17.44
2018-04-26T16:49:06.908Z,17.49
2018-04-26T16:51:34.312Z,17.49
2018-04-26T16:54:01.889Z,17.29
2018-04-26T16:56:29.375Z,17.36
2018-04-26T16:58:56.992Z,17.36
2018-04-26T17:01:25.412Z,17.25
2018-04-26T17:03:52.919Z,17.20
2018-04-26T17:06:20.559Z,17.11
2018-04-26T17:08:48.084Z,17.06
2018-04-26T17:11:17.015Z,17.03
2018-04-26T17:13:44.543Z,16.87
2018-04-26T17:16:12.963Z,17.06
2018-04-26T17:18:40.803Z,16.97
2018-04-26T17:21:09.509Z,16.71
2018-04-26T17:23:38.109Z,16.78
2018-04-26T17:26:06.485Z,16.79
2018-04-26T17:28:34.004Z,16.52
2018-04-26T17:31:01.529Z,16.70
2018-04-26T17:33:29.020Z,16.62
2018-04-26T17:35:56.649Z,16.54
2018-04-26T17:38:24.117Z,16.35
2018-04-26T17:40:52.028Z,16.39
2018-04-26T17:43:19.642Z,16.29
2018-04-26T17:45:47.426Z,16.18
2018-04-26T17:48:16.780Z,16.32
2018-04-26T17:50:45.871Z,16.20
2018-04-26T17:53:13.980Z,15.99
2018-04-26T17:55:42.183Z,15.95
2018-04-26T17:58:12.493Z,15.88
2018-04-26T18:00:39.944Z,15.93
2018-04-26T18:03:07.475Z,15.88
2018-04-26T18:05:35.842Z,15.68
2018-04-26T18:08:07.581Z,15.65
2018-04-26T18:10:35.827Z,15.57
2018-04-26T18:13:03.800Z,15.64
2018-04-26T18:15:31.466Z,15.59
2018-04-26T18:17:59.786Z,15.61
2018-04-26T18:20:27.353Z,15.47
2018-04-26T18:22:54.868Z,15.49
2018-04-26T18:25:23.560Z,15.51
2018-04-26T18:27:51.245Z,15.40
2018-04-26T18:30:21.199Z,15.52
2018-04-26T18:32:48.732Z,15.68
2018-04-26T18:35:16.239Z,15.78
2018-04-26T18:37:44.383Z,15.65
2018-04-26T18:40:11.869Z,15.63
2018-04-26T18:42:39.398Z,15.50
2018-04-26T18:45:06.848Z,15.61
2018-04-26T18:47:34.372Z,15.56
2018-04-26T18:50:02.622Z,15.68
2018-04-26T18:52:31.151Z,15.74
2018-04-26T18:55:00.715Z,15.74
2018-04-26T18:57:28.238Z,15.77
2018-04-26T18:59:55.680Z,15.74
2018-04-26T19:02:24.060Z,15.68
2018-04-26T19:04:53.114Z,15.67
2018-04-26T19:07:20.904Z,15.60
2018-04-26T19:09:48.514Z,15.55
2018-04-26T19:12:16.473Z,15.54
2018-04-26T19:14:44.108Z,15.51
2018-04-26T19:17:11.928Z,15.50
2018-04-26T19:19:47.845Z,15.43
2018-04-26T19:22:15.885Z,15.45
2018-04-26T19:24:43.451Z,15.43
2018-04-26T19:27:11.113Z,15.43
2018-04-26T19:29:38.671Z,15.45
2018-04-26T19:32:06.180Z,15.44
2018-04-26T19:34:35.180Z,15.44
2018-04-26T19:37:02.992Z,15.42
2018-04-26T19:39:31.620Z,15.38
2018-04-26T19:41:59.077Z,15.38
2018-04-26T19:44:27.186Z,15.39
2018-04-26T19:46:56.453Z,15.39
2018-04-26T19:49:27.730Z,15.37
2018-04-26T19:51:55.236Z,15.33
2018-04-26T19:54:22.812Z,15.34
2018-04-26T19:56:50.361Z,15.32
2018-04-26T19:59:18.966Z,15.24
2018-04-26T20:01:47.448Z,15.26
2018-04-26T20:04:18.781Z,15.23
2018-04-26T20:06:47.064Z,15.22
2018-04-26T20:09:14.685Z,15.21
2018-04-26T20:11:42.312Z,15.18
2018-04-26T20:14:09.766Z,15.20
2018-04-26T20:16:37.298Z,15.19
2018-04-26T20:19:05.547Z,15.17
2018-04-26T20:21:33.013Z,15.09
2018-04-26T20:24:00.594Z,15.06
2018-04-26T20:26:28.027Z,14.94
2018-04-26T20:28:55.709Z,14.95
2018-04-26T20:31:23.378Z,14.82
2018-04-26T20:33:50.989Z,14.78
2018-04-26T20:36:18.559Z,14.76
2018-04-26T20:38:46.467Z,14.81
2018-04-26T20:41:13.929Z,14.78
2018-04-26T20:43:41.404Z,14.75
2018-04-26T20:46:08.884Z,14.77
2018-04-26T20:48:39.798Z,14.74
2018-04-26T20:51:07.230Z,14.68
2018-04-26T20:53:34.681Z,14.65
2018-04-26T20:56:02.279Z,14.61
2018-04-26T20:58:29.830Z,14.55
2018-04-26T21:00:57.408Z,14.54
2018-04-26T21:03:24.842Z,14.43
2018-04-26T21:05:52.311Z,14.39
2018-04-26T21:08:19.856Z,14.37
2018-04-26T21:10:47.376Z,14.32
2018-04-26T21:13:14.822Z,14.24
2018-04-26T21:15:42.290Z,14.15
2018-04-26T21:18:09.991Z,14.05
2018-04-26T21:20:37.493Z,13.97
2018-04-26T21:23:04.934Z,13.96
2018-04-26T21:25:32.382Z,13.94
2018-04-26T21:27:59.852Z,13.93
2018-04-26T21:30:27.341Z,13.93
2018-04-26T21:32:54.817Z,13.89
2018-04-26T21:35:22.250Z,13.84
2018-04-26T21:37:49.806Z,13.81
2018-04-26T21:40:17.719Z,13.77
2018-04-26T21:42:45.180Z,13.71
2018-04-26T21:45:12.693Z,13.69
2018-04-26T21:47:40.199Z,13.60
2018-04-26T21:50:13.184Z,13.54
2018-04-26T21:52:46.258Z,13.44
2018-04-26T21:55:19.419Z,13.37
2018-04-26T21:57:52.508Z,13.31
2018-04-26T22:00:25.630Z,13.26
2018-04-26T22:02:52.499Z,13.19
2018-04-26T22:05:22.637Z,13.16
2018-04-26T22:07:50.116Z,13.12
2018-04-26T22:10:17.576Z,13.10
2018-04-26T22:12:45.007Z,13.04
2018-04-26T22:15:12.477Z,13.03
2018-04-26T22:17:39.921Z,13.01
2018-04-26T22:20:07.485Z,12.95
2018-04-26T22:22:35.072Z,12.90
2018-04-26T22:25:02.650Z,12.86
2018-04-26T22:27:30.302Z,12.83
2018-04-26T22:29:57.835Z,12.81
2018-04-26T22:32:25.319Z,12.75
2018-04-26T22:34:53.406Z,12.73
2018-04-26T22:37:20.857Z,12.72
2018-04-26T22:39:48.365Z,12.62
2018-04-26T22:42:15.844Z,12.54
2018-04-26T22:44:43.325Z,12.48
2018-04-26T22:47:10.825Z,12.37
2018-04-26T22:49:38.319Z,12.30
2018-04-26T22:52:05.808Z,12.30
2018-04-26T22:54:33.240Z,12.26
2018-04-26T22:57:00.730Z,12.21
2018-04-26T22:59:28.221Z,12.17
2018-04-26T23:01:55.728Z,12.12
2018-04-26T23:04:23.380Z,12.08
2018-04-26T23:06:50.890Z,12.05
2018-04-26T23:09:18.727Z,12.04
2018-04-26T23:11:46.171Z,12.03
2018-04-26T23:14:13.645Z,11.99
2018-04-26T23:16:41.079Z,11.96
2018-04-26T23:19:08.706Z,11.94
2018-04-26T23:21:36.222Z,11.90
2018-04-26T23:24:03.919Z,11.84
2018-04-26T23:26:31.444Z,11.74
2018-04-26T23:28:59.125Z,11.71
2018-04-26T23:31:26.693Z,11.73
2018-04-26T23:33:54.326Z,11.70
2018-04-26T23:36:21.769Z,11.64
2018-04-26T23:38:49.210Z,11.59
2018-04-26T23:41:16.751Z,11.59
2018-04-26T23:43:44.448Z,11.51
2018-04-26T23:46:11.957Z,11.54
2018-04-26T23:48:39.410Z,11.50
2018-04-26T23:51:10.679Z,11.49
2018-04-26T23:53:38.106Z,11.49
2018-04-26T23:56:05.628Z,11.45
2018-04-26T23:58:33.065Z,11.42
